WAPP/AMQ METAR and TAF weather

Enter ICAO airport designator
Station Type Date Time Source
WAPP METAR 2024/02/21 01:30 UTC NOAA

WAPP 210130Z 03011KT 320V070 9999 SCT017 33/25 Q1010 NOSIG


Station Type Date Time Source
WAPP Decoded METAR 2024/02/21 01:30 UTC NOAA

Ambon / Pattimura, Indonesia (WAPP) 03-42S 128-05E 12M
Feb 20, 2024 - 08:30 PM EST / 2024.02.21 0130 UTC
Wind: from the NNE (030 degrees) at 13 MPH (11 KT) (direction variable):0
Visibility: greater than 7 mile(s):0
Sky conditions: partly cloudy
Temperature: 91 F (33 C)
Heat index: 103.5 F (39.7 C):1
Dew Point: 77 F (25 C)
Relative Humidity: 62%
Pressure (altimeter): 29.83 in. Hg (1010 hPa)
ob: WAPP 210130Z 03011KT 320V070 9999 SCT017 33/25 Q1010 NOSIG
cycle: 1

Station Type Date Time Source
WAPP TAF 2015/06/30 00:57 UTC NOAA

TAF WAPP 302300Z 0100/0124 34006KT 9999 SCT018
TEMPO 0101/0104 7000 -RA BKN017
BECMG 0105/0107 21006KT
BECMG 0109/0111 32006KT

Example: see airport list